Terminal Aerodrome Forecast
Issued by NWS Jackson, MS

Home | Current Version | Previous Version | Text Only | Print | Product List | Glossary On
Versions: 1 2 3 4 5 6 7 8 9 10 11 12 13 14 15 16 17 18
539
FTUS44 KJAN 081127
TAFHBG
TAF
KHBG 081127Z 0812/0912 01008KT P6SM BKN015 OVC040
     FM081500 01011KT P6SM -RA SCT030 OVC050
     FM081700 01013G19KT P6SM OVC070=

USA.gov is the U.S. government's official web portal to all federal, state and local government web resources and services.